Time;durP1;ratioP1;P1;durP2;ratioP2;P2;SDS_P1;SDS_P2;PMS_P1;PMS_P2;Temp;Humidity;BMP_temperature;BMP_pressure;BME280_temperature;BME280_humidity;BME280_pressure;Samples;Min_cycle;Max_cycle;Signal;HPM_P1;HPM_P2
2023/02/25 00:01:32;;;;;;;8.02;1.55;;;;;;;-146.27;90.42;48383.66;5092018;28;20019;-76
2023/02/25 00:03:57;;;;;;;15.10;1.98;;;;;;;-146.27;89.78;48379.66;5088603;28;20417;-78
2023/02/25 00:06:23;;;;;;;10.40;2.08;;;;;;;-146.27;90.31;48397.59;5081465;28;20078;-77
2023/02/25 00:08:49;;;;;;;18.98;2.22;;;;;;;-146.27;88.59;48359.75;5089112;28;20016;-77
2023/02/25 00:11:16;;;;;;;9.82;2.13;;;;;;;-146.27;90.10;48391.63;5088269;28;20017;-77
2023/02/25 00:13:43;;;;;;;18.52;2.50;;;;;;;-146.27;90.17;48399.59;5093521;28;20053;-79
2023/02/25 00:16:09;;;;;;;13.00;1.67;;;;;;;-146.27;90.18;48409.53;5072646;28;20027;-78
2023/02/25 00:18:35;;;;;;;16.08;3.63;;;;;;;-146.27;90.45;48411.53;5081278;28;20028;-78
2023/02/25 00:21:04;;;;;;;18.70;2.20;;;;;;;-146.27;90.60;48343.81;5094112;28;20383;-78
2023/02/25 00:23:30;;;;;;;11.18;2.10;;;;;;;-146.27;94.11;48359.75;5091006;28;20340;-78
2023/02/25 00:26:00;;;;;;;17.00;1.67;;;;;;;-146.27;91.91;48375.69;5076580;28;20131;-77
2023/02/25 00:28:26;;;;;;;7.20;1.15;;;;;;;-146.27;90.79;48399.59;5093510;28;20521;-78
2023/02/25 00:30:52;;;;;;;20.13;1.40;;;;;;;-146.27;90.08;48387.63;5079972;28;20032;-77
2023/02/25 00:33:17;;;;;;;4.25;0.65;;;;;;;-146.27;88.43;48387.63;5086461;28;20541;-78
2023/02/25 00:35:42;;;;;;;6.40;0.93;;;;;;;-146.27;87.12;48385.66;5094617;28;20115;-80
2023/02/25 00:38:08;;;;;;;5.68;0.80;;;;;;;-146.27;87.77;48363.75;5087831;28;20035;-77
2023/02/25 00:40:37;;;;;;;4.35;1.13;;;;;;;-146.27;86.80;48385.66;5087438;28;20028;-77
2023/02/25 00:43:03;;;;;;;11.02;1.63;;;;;;;-146.27;86.59;48387.63;5090715;28;20043;-78
2023/02/25 00:45:28;;;;;;;5.55;1.08;;;;;;;-146.27;87.21;48379.66;5092570;28;21835;-77
2023/02/25 00:47:53;;;;;;;5.63;1.00;;;;;;;-146.27;88.04;48361.75;5095136;28;20016;-77
2023/02/25 00:50:19;;;;;;;6.65;1.70;;;;;;;-146.27;88.43;48391.63;5091152;28;20028;-78
2023/02/25 00:52:45;;;;;;;8.73;1.80;;;;;;;-146.27;90.26;48429.47;5094225;28;20027;-78
2023/02/25 00:55:11;;;;;;;17.27;1.75;;;;;;;-146.27;91.29;48387.63;5091780;28;20449;-77
2023/02/25 00:57:36;;;;;;;9.98;1.52;;;;;;;-146.27;91.96;48411.53;5090900;28;20024;-77
2023/02/25 01:00:08;;;;;;;13.45;1.73;;;;;;;-146.27;92.28;48381.66;5086365;28;20112;-76
2023/02/25 01:02:34;;;;;;;7.20;1.23;;;;;;;-146.27;92.20;48389.63;5087045;28;20107;-78
2023/02/25 01:04:59;;;;;;;8.88;1.98;;;;;;;-146.27;92.26;48405.56;5088791;28;20479;-77
2023/02/25 01:07:24;;;;;;;22.52;1.88;;;;;;;-146.27;92.87;48409.53;5083636;28;20019;-78
2023/02/25 01:09:56;;;;;;;15.65;2.15;;;;;;;-146.27;94.24;48369.72;5089625;28;20044;-78
2023/02/25 01:12:22;;;;;;;12.70;1.63;;;;;;;-146.27;94.11;48407.56;5085341;28;20028;-78
2023/02/25 01:14:48;;;;;;;19.70;1.63;;;;;;;-146.27;93.45;48387.63;5074139;28;20107;-77
2023/02/25 01:17:13;;;;;;;12.50;1.92;;;;;;;-146.27;93.25;48381.66;5091002;28;20028;-78
2023/02/25 01:19:39;;;;;;;14.52;1.77;;;;;;;-146.27;93.00;48359.75;5092446;28;20028;-79
2023/02/25 01:22:04;;;;;;;11.45;2.28;;;;;;;-146.27;93.28;48397.59;5090956;28;20039;-78
2023/02/25 01:24:31;;;;;;;11.52;1.65;;;;;;;-146.27;92.76;48379.66;5090193;28;20035;-77
2023/02/25 01:26:58;;;;;;;5.80;1.65;;;;;;;-146.27;92.68;48403.56;5091364;28;20032;-78
2023/02/25 01:29:29;;;;;;;21.73;3.08;;;;;;;-146.27;91.91;48399.59;5083062;28;20028;-78
2023/02/25 01:31:57;;;;;;;21.58;2.60;;;;;;;-146.27;91.79;48389.63;5084561;28;20021;-78
2023/02/25 01:34:23;;;;;;;15.23;1.83;;;;;;;-146.27;91.48;48427.47;5089221;28;20036;-78
2023/02/25 01:36:48;;;;;;;16.10;1.65;;;;;;;-146.27;91.15;48427.47;5093690;28;20032;-79
2023/02/25 01:39:15;;;;;;;18.35;1.90;;;;;;;-146.27;91.52;48375.69;5092426;28;20457;-78
2023/02/25 01:41:45;;;;;;;16.65;2.72;;;;;;;-146.27;91.22;48387.63;5089874;28;20051;-77
2023/02/25 01:44:28;;;;;;;11.05;1.83;;;;;;;-146.27;91.28;48377.69;5093328;28;20039;-77
2023/02/25 01:46:54;;;;;;;10.90;1.42;;;;;;;-146.27;91.40;48393.63;5093837;28;20376;-80
2023/02/25 01:49:22;;;;;;;13.32;2.08;;;;;;;-146.27;90.63;48365.72;5092083;28;20039;-78
2023/02/25 01:51:53;;;;;;;20.92;2.58;;;;;;;-146.27;89.72;48351.78;5090388;28;20027;-78
2023/02/25 01:54:19;;;;;;;17.15;1.77;;;;;;;-146.27;89.64;48365.72;5092537;28;20033;-78
2023/02/25 01:56:49;;;;;;;13.90;2.58;;;;;;;-146.27;89.68;48379.66;5088746;28;20360;-78
2023/02/25 01:59:16;;;;;;;18.63;2.28;;;;;;;-146.27;90.86;48375.69;5091069;28;20016;-78
2023/02/25 02:01:42;;;;;;;6.85;1.33;;;;;;;-146.27;93.08;48347.81;5089433;28;20031;-77
2023/02/25 02:04:10;;;;;;;11.73;1.38;;;;;;;-146.27;94.68;48359.75;5080164;28;20028;-78
2023/02/25 02:06:38;;;;;;;6.75;1.25;;;;;;;-146.27;94.84;48347.81;5089178;28;20054;-78
2023/02/25 02:09:07;;;;;;;10.20;1.33;;;;;;;-146.27;94.86;48387.63;5091511;28;20039;-78
2023/02/25 02:11:32;;;;;;;8.68;2.28;;;;;;;-146.27;95.15;48385.66;5089222;28;20020;-78
2023/02/25 02:14:02;;;;;;;10.90;1.63;;;;;;;-146.27;95.33;48377.69;5084628;28;20054;-78
2023/02/25 02:16:49;;;;;;;8.57;1.20;;;;;;;-146.27;94.58;48385.66;5089249;28;20090;-78
2023/02/25 02:19:20;;;;;;;18.98;1.90;;;;;;;-146.27;93.16;48413.53;5095571;28;20480;-79
2023/02/25 02:22:03;;;;;;;16.80;1.63;;;;;;;-146.27;92.30;48361.75;5089433;28;20027;-76
2023/02/25 02:24:50;;;;;;;10.07;1.88;;;;;;;-146.27;91.92;48375.69;5088820;28;20073;-76
2023/02/25 02:27:22;;;;;;;10.55;1.65;;;;;;;-146.27;91.31;48399.59;5085972;28;20384;-77
2023/02/25 02:30:12;;;;;;;17.17;1.58;;;;;;;-146.27;91.37;48387.63;5073062;28;20024;-77
2023/02/25 02:33:04;;;;;;;11.75;2.20;;;;;;;-146.27;91.13;48411.53;5080013;28;20028;-77
2023/02/25 02:36:04;;;;;;;10.95;2.20;;;;;;;-146.27;91.03;48387.63;5084606;28;20384;-78
2023/02/25 02:38:51;;;;;;;17.17;2.20;;;;;;;-146.27;91.10;48375.69;5069334;28;20075;-79
2023/02/25 02:41:43;;;;;;;10.75;1.52;;;;;;;-146.27;91.81;48383.66;5090153;28;20463;-78
2023/02/25 02:44:18;;;;;;;14.45;2.40;;;;;;;-146.27;92.32;48407.56;5083155;28;20058;-78
2023/02/25 02:46:56;;;;;;;21.50;2.03;;;;;;;-146.27;92.33;48375.69;5091593;28;20062;-78
2023/02/25 02:49:36;;;;;;;22.60;2.40;;;;;;;-146.27;93.30;48409.53;5090809;28;20160;-78
2023/02/25 02:52:33;;;;;;;11.52;1.63;;;;;;;-146.27;94.58;48407.56;5091110;28;20123;-78
2023/02/25 02:55:21;;;;;;;12.65;1.65;;;;;;;-146.27;96.20;48409.53;5083398;28;20040;-78
2023/02/25 02:57:49;;;;;;;10.77;2.22;;;;;;;-146.27;94.72;48367.72;5087907;28;20054;-77
2023/02/25 03:00:17;;;;;;;10.73;1.20;;;;;;;-146.27;93.62;48387.63;5087303;28;20028;-77
2023/02/25 03:02:52;;;;;;;10.30;1.60;;;;;;;-146.27;93.64;48419.50;5079268;28;20472;-79
2023/02/25 03:05:20;;;;;;;7.30;1.52;;;;;;;-146.27;96.45;48375.69;5090946;28;20097;-78
2023/02/25 03:07:58;;;;;;;12.95;2.08;;;;;;;-146.27;99.23;48373.69;5088156;28;20036;-76
2023/02/25 03:10:24;;;;;;;13.90;2.00;;;;;;;-146.27;99.46;48375.69;5076044;28;20880;-77
2023/02/25 03:12:49;;;;;;;12.68;1.48;;;;;;;-146.27;98.66;48413.53;5084880;28;20391;-77
2023/02/25 03:15:15;;;;;;;11.65;2.92;;;;;;;-146.27;98.79;48391.63;5090571;28;20050;-77
2023/02/25 03:17:47;;;;;;;12.10;2.28;;;;;;;-146.27;97.59;48353.78;5090942;28;20020;-79
2023/02/25 03:20:19;;;;;;;10.18;1.88;;;;;;;-146.27;94.59;48399.59;5089226;28;20484;-77
2023/02/25 03:22:48;;;;;;;11.98;1.40;;;;;;;-146.27;92.44;48389.63;5089780;28;20035;-78
2023/02/25 03:25:30;;;;;;;14.80;2.97;;;;;;;-146.27;93.03;48379.66;5080204;28;20112;-78
2023/02/25 03:28:01;;;;;;;9.88;1.48;;;;;;;-146.27;92.93;48367.72;5084550;28;20020;-78
2023/02/25 03:30:46;;;;;;;13.07;1.42;;;;;;;-146.27;92.03;48373.69;5088165;28;20027;-77
2023/02/25 03:33:25;;;;;;;12.73;1.48;;;;;;;-146.27;90.21;48419.50;5086866;28;20016;-79
2023/02/25 03:35:53;;;;;;;11.48;1.17;;;;;;;-146.27;90.36;48383.66;5090776;28;20046;-78
2023/02/25 03:38:23;;;;;;;15.70;1.50;;;;;;;-146.27;89.67;48399.59;5085839;28;20033;-79
2023/02/25 03:40:50;;;;;;;12.68;2.08;;;;;;;-146.27;89.16;48361.75;5088086;28;20487;-78
2023/02/25 03:43:31;;;;;;;13.93;2.05;;;;;;;-146.27;88.38;48375.69;5087481;28;20031;-80
2023/02/25 03:45:58;;;;;;;15.82;1.40;;;;;;;-146.27;87.83;48403.56;5078964;28;20024;-79
2023/02/25 03:48:25;;;;;;;18.42;1.88;;;;;;;-146.27;88.02;48391.63;5090861;28;20221;-78
2023/02/25 03:50:57;;;;;;;19.05;2.15;;;;;;;-146.27;88.13;48379.66;5090947;28;20306;-78
2023/02/25 03:53:23;;;;;;;19.30;2.42;;;;;;;-146.27;88.92;48359.75;5091325;28;20060;-77
2023/02/25 03:55:48;;;;;;;17.50;2.53;;;;;;;-146.27;89.24;48373.69;5089594;28;20497;-77
2023/02/25 03:58:13;;;;;;;25.13;2.40;;;;;;;-146.27;89.32;48343.81;5080122;28;20040;-77
2023/02/25 04:00:42;;;;;;;19.35;1.85;;;;;;;-146.27;89.64;48363.75;5082841;28;20031;-78
2023/02/25 04:03:08;;;;;;;16.13;2.80;;;;;;;-146.27;89.87;48397.59;5090238;28;20051;-77
2023/02/25 04:05:35;;;;;;;13.18;1.65;;;;;;;-146.27;90.57;48339.84;5089406;28;20044;-77
2023/02/25 04:08:01;;;;;;;20.85;2.33;;;;;;;-146.27;91.11;48353.78;5088706;28;20024;-77
2023/02/25 04:10:27;;;;;;;16.63;2.58;;;;;;;-146.27;92.05;48411.53;5089470;28;20426;-77
2023/02/25 04:12:52;;;;;;;15.93;2.03;;;;;;;-146.27;92.15;48395.59;5088502;28;20013;-80
2023/02/25 04:15:19;;;;;;;12.07;2.42;;;;;;;-146.27;92.73;48405.56;5085982;28;20114;-79
2023/02/25 04:17:45;;;;;;;13.32;2.13;;;;;;;-146.27;93.92;48389.63;5081970;28;20028;-78
2023/02/25 04:20:12;;;;;;;16.67;2.45;;;;;;;-146.27;94.25;48373.69;5083684;28;20028;-79
2023/02/25 04:22:38;;;;;;;9.05;1.17;;;;;;;-146.27;94.27;48367.72;5091152;28;20077;-77
2023/02/25 04:25:04;;;;;;;10.25;1.48;;;;;;;-146.27;93.70;48375.69;5087720;28;20331;-77
2023/02/25 04:27:31;;;;;;;11.63;1.77;;;;;;;-146.27;93.74;48375.69;5084108;28;20048;-77
2023/02/25 04:29:57;;;;;;;12.25;1.73;;;;;;;-146.27;92.70;48387.63;5087983;28;20069;-78
2023/02/25 04:32:22;;;;;;;16.15;1.92;;;;;;;-146.27;91.91;48393.63;5087579;28;20055;-77
2023/02/25 04:34:48;;;;;;;9.30;1.48;;;;;;;-146.27;92.26;48363.75;5076741;28;20020;-78
2023/02/25 04:37:13;;;;;;;8.32;1.73;;;;;;;-146.27;93.93;48355.78;5089227;28;20023;-77
2023/02/25 04:39:38;;;;;;;7.82;1.58;;;;;;;-146.27;94.00;48359.75;5075227;28;20095;-77
2023/02/25 04:42:04;;;;;;;9.23;1.60;;;;;;;-146.27;93.99;48371.69;5088365;28;20166;-78
2023/02/25 04:44:29;;;;;;;14.75;1.85;;;;;;;-146.27;93.97;48405.56;5075451;28;20027;-78
2023/02/25 04:46:56;;;;;;;12.55;2.05;;;;;;;-146.27;94.14;48413.53;5089300;28;20413;-77
2023/02/25 04:49:22;;;;;;;12.73;1.65;;;;;;;-146.27;93.26;48375.69;5094068;28;20024;-78
2023/02/25 04:51:48;;;;;;;11.38;1.50;;;;;;;-146.27;93.03;48383.66;5093685;28;20031;-78
2023/02/25 04:54:14;;;;;;;16.10;1.48;;;;;;;-146.27;93.60;48401.56;5082250;28;20027;-77
2023/02/25 04:56:39;;;;;;;12.13;1.30;;;;;;;-146.27;93.73;48357.75;5084321;28;20032;-78
2023/02/25 04:59:05;;;;;;;5.75;1.30;;;;;;;-146.27;94.00;48389.63;5087151;28;20468;-78
2023/02/25 05:01:31;;;;;;;11.85;1.40;;;;;;;-146.27;93.81;48395.59;5089932;28;20392;-79
2023/02/25 05:03:59;;;;;;;18.02;2.17;;;;;;;-146.27;93.91;48383.66;5093682;28;20032;-76
2023/02/25 05:06:27;;;;;;;14.25;2.08;;;;;;;-146.27;93.64;48387.63;5093741;28;20043;-79
2023/02/25 05:08:54;;;;;;;16.90;1.70;;;;;;;-146.27;93.14;48383.66;5085537;28;20028;-77
2023/02/25 05:11:20;;;;;;;8.98;2.08;;;;;;;-146.27;92.55;48381.66;5093366;28;20028;-78
2023/02/25 05:13:45;;;;;;;14.32;1.83;;;;;;;-146.27;91.90;48389.63;5092839;28;20049;-77
2023/02/25 05:16:15;;;;;;;10.02;1.75;;;;;;;-146.27;91.31;48387.63;5086524;28;20029;-78
2023/02/25 05:18:42;;;;;;;14.63;2.67;;;;;;;-146.27;91.05;48407.56;5089385;28;20028;-78
2023/02/25 05:21:12;;;;;;;16.90;1.98;;;;;;;-146.27;91.35;48379.66;5091188;28;20020;-78
2023/02/25 05:23:42;;;;;;;11.90;1.48;;;;;;;-146.27;91.56;48357.75;5092365;28;20062;-77
2023/02/25 05:26:08;;;;;;;16.02;2.25;;;;;;;-146.27;91.67;48405.56;5081376;28;20081;-78
2023/02/25 05:28:34;;;;;;;15.43;2.13;;;;;;;-146.27;90.94;48395.59;5081475;28;20028;-77
2023/02/25 05:31:03;;;;;;;12.43;1.75;;;;;;;-146.27;90.53;48381.66;5079206;28;20107;-77
2023/02/25 05:33:29;;;;;;;18.77;1.83;;;;;;;-146.27;90.23;48345.81;5092478;28;20031;-77
2023/02/25 05:35:54;;;;;;;14.75;2.17;;;;;;;-146.27;90.48;48389.63;5092047;28;20032;-77
2023/02/25 05:38:19;;;;;;;13.35;2.13;;;;;;;-146.27;90.58;48403.56;5092852;28;20043;-78
2023/02/25 05:40:45;;;;;;;18.23;2.03;;;;;;;-146.27;90.56;48311.94;5093594;28;20105;-77
2023/02/25 05:43:10;;;;;;;15.40;1.67;;;;;;;-146.27;91.31;48377.69;5092418;28;20059;-79
2023/02/25 05:45:35;;;;;;;12.30;2.00;;;;;;;-146.27;91.36;48411.53;5088970;28;20040;-78
2023/02/25 05:48:01;;;;;;;15.13;2.22;;;;;;;-146.27;91.62;48387.63;5091556;28;20456;-78
2023/02/25 05:50:27;;;;;;;16.90;2.15;;;;;;;-146.27;91.74;48347.81;5088988;28;20020;-78
2023/02/25 05:52:53;;;;;;;18.92;2.10;;;;;;;-146.27;91.87;48401.56;5086648;28;20028;-77
2023/02/25 05:55:18;;;;;;;15.40;1.42;;;;;;;-146.27;91.47;48369.72;5092115;28;20471;-79
2023/02/25 05:57:43;;;;;;;14.93;1.95;;;;;;;-146.27;91.60;48375.69;5088418;28;20028;-77
2023/02/25 06:00:13;;;;;;;12.13;1.90;;;;;;;-146.27;92.18;48403.56;5093804;28;20024;-77
2023/02/25 06:02:40;;;;;;;8.65;1.35;;;;;;;-146.27;91.87;48385.66;5087013;28;20411;-79
2023/02/25 06:05:06;;;;;;;15.60;1.45;;;;;;;-146.27;91.66;48393.63;5091879;28;20032;-77
2023/02/25 06:07:32;;;;;;;8.55;1.20;;;;;;;-146.27;90.96;48369.72;5092873;28;20026;-78
2023/02/25 06:09:59;;;;;;;18.88;2.25;;;;;;;-146.27;90.50;48391.63;5073277;28;20090;-76
2023/02/25 06:12:27;;;;;;;22.17;1.88;;;;;;;-146.27;90.81;48375.69;5087418;28;20032;-79
2023/02/25 06:14:53;;;;;;;14.85;2.17;;;;;;;-146.27;91.91;48355.78;5073731;28;20056;-77
2023/02/25 06:17:18;;;;;;;10.82;1.90;;;;;;;-146.27;92.58;48385.66;5079209;28;20514;-79
2023/02/25 06:19:44;;;;;;;15.43;1.63;;;;;;;-146.27;93.20;48383.66;5090373;28;20050;-79
2023/02/25 06:22:10;;;;;;;15.50;2.42;;;;;;;-146.27;93.66;48381.66;5093255;28;20372;-77
2023/02/25 06:24:35;;;;;;;12.30;2.08;;;;;;;-146.27;94.16;48391.63;5092494;28;20024;-78
2023/02/25 06:27:00;;;;;;;21.00;2.35;;;;;;;-146.27;94.08;48375.69;5093272;28;20024;-77
2023/02/25 06:29:26;;;;;;;16.15;3.08;;;;;;;-146.27;93.77;48371.69;5089407;28;20024;-76
2023/02/25 06:31:51;;;;;;;8.70;1.45;;;;;;;-146.27;93.74;48357.75;5083569;28;20028;-79
2023/02/25 06:34:18;;;;;;;11.85;1.88;;;;;;;-146.27;92.87;48377.69;5083714;28;20016;-78
2023/02/25 06:36:43;;;;;;;14.80;2.00;;;;;;;-146.27;92.22;48351.78;5091224;28;20077;-78
2023/02/25 06:39:08;;;;;;;15.73;2.20;;;;;;;-146.27;90.83;48355.78;5088599;28;20557;-79
2023/02/25 06:41:34;;;;;;;14.68;1.52;;;;;;;-146.27;90.49;48393.63;5087196;28;20043;-75
2023/02/25 06:43:59;;;;;;;11.65;2.40;;;;;;;-146.27;90.80;48385.66;5085826;28;20051;-77
2023/02/25 06:46:25;;;;;;;20.35;2.20;;;;;;;-146.27;89.16;48339.84;5090682;28;20365;-77
2023/02/25 06:48:51;;;;;;;11.32;1.15;;;;;;;-146.27;88.75;48391.63;5081197;28;20056;-78
2023/02/25 06:51:16;;;;;;;9.55;1.63;;;;;;;-146.27;89.19;48375.69;5081115;28;20165;-78
2023/02/25 06:53:43;;;;;;;12.18;1.50;;;;;;;-146.27;90.74;48363.75;5089889;28;20102;-77
2023/02/25 06:56:11;;;;;;;13.20;1.20;;;;;;;-146.27;92.04;48407.56;5090134;28;20101;-78
2023/02/25 06:58:36;;;;;;;12.80;2.75;;;;;;;-146.27;94.53;48381.66;5089115;28;20032;-77
2023/02/25 07:01:10;;;;;;;10.75;1.50;;;;;;;-146.27;95.93;48381.66;5088188;28;20143;-78
2023/02/25 07:03:36;;;;;;;17.02;1.30;;;;;;;-146.27;96.84;48363.75;5077136;28;20074;-77
2023/02/25 07:06:01;;;;;;;13.05;2.67;;;;;;;-146.27;99.14;48359.75;5090768;28;20130;-77
2023/02/25 07:08:26;;;;;;;15.80;2.17;;;;;;;-146.27;100.00;48393.63;5081224;28;20582;-78
2023/02/25 07:10:52;;;;;;;17.40;2.88;;;;;;;-146.27;100.00;48323.91;5086287;28;20020;-80
2023/02/25 07:13:17;;;;;;;16.98;2.33;;;;;;;-146.27;100.00;48339.84;5085986;28;20042;-79
2023/02/25 07:15:42;;;;;;;15.13;1.88;;;;;;;-146.27;100.00;48383.66;5087839;28;20103;-77
2023/02/25 07:18:09;;;;;;;19.67;2.05;;;;;;;-146.27;100.00;48405.56;5081846;28;20150;-77
2023/02/25 07:20:37;;;;;;;13.57;1.33;;;;;;;-146.27;100.00;48335.84;5083104;28;20091;-81
2023/02/25 07:23:04;;;;;;;5.57;1.02;;;;;;;-146.27;100.00;48371.69;5081021;28;20450;-79
2023/02/25 07:25:29;;;;;;;20.05;2.00;;;;;;;-146.27;100.00;48387.63;5084529;28;20020;-79
2023/02/25 07:27:55;;;;;;;11.57;1.30;;;;;;;-146.27;100.00;48367.72;5080643;28;20099;-78
2023/02/25 07:30:20;;;;;;;7.93;1.83;;;;;;;-146.27;100.00;48361.75;5086741;28;20763;-78
2023/02/25 07:32:45;;;;;;;9.30;1.42;;;;;;;-146.27;100.00;48415.53;5078112;28;20024;-78
2023/02/25 07:35:11;;;;;;;10.88;1.58;;;;;;;-146.27;100.00;48379.66;5086551;28;20498;-78
2023/02/25 07:37:37;;;;;;;17.73;1.60;;;;;;;-146.27;100.00;48381.66;5101884;28;20020;-77
2023/02/25 07:40:04;;;;;;;13.68;1.63;;;;;;;-146.27;100.00;48367.72;5088492;28;20051;-79
2023/02/25 07:42:29;;;;;;;20.50;2.67;;;;;;;-146.27;100.00;48387.63;5083856;28;20054;-77
2023/02/25 07:44:54;;;;;;;13.48;2.50;;;;;;;-146.27;100.00;48403.56;5090448;28;20379;-77
2023/02/25 07:47:20;;;;;;;24.92;2.55;;;;;;;-146.27;100.00;48405.56;5086294;28;20044;-77
2023/02/25 07:49:46;;;;;;;10.85;1.45;;;;;;;-146.27;100.00;48445.41;5083679;28;20062;-78
2023/02/25 07:52:11;;;;;;;17.65;2.35;;;;;;;-146.27;100.00;48387.63;5087765;28;20061;-79
2023/02/25 07:54:37;;;;;;;13.85;2.22;;;;;;;-146.27;100.00;48371.69;5086505;28;20082;-78
2023/02/25 07:57:03;;;;;;;15.75;2.10;;;;;;;-146.27;100.00;48381.66;5083935;28;20020;-78
2023/02/25 07:59:30;;;;;;;15.48;2.60;;;;;;;-146.27;100.00;48395.59;5077823;28;20029;-79
2023/02/25 08:01:55;;;;;;;23.45;2.58;;;;;;;-146.27;100.00;48377.69;5078631;28;20507;-79
2023/02/25 08:04:23;;;;;;;13.18;2.03;;;;;;;-146.27;99.48;48369.72;5081121;28;20032;-80
2023/02/25 08:06:50;;;;;;;16.83;2.45;;;;;;;-146.27;97.67;48395.59;5088187;28;20123;-78
2023/02/25 08:09:16;;;;;;;20.20;1.85;;;;;;;-146.27;94.36;48419.50;5086392;28;20031;-79
2023/02/25 08:11:41;;;;;;;11.70;1.67;;;;;;;-146.27;91.74;48353.78;5082098;28;20461;-78
2023/02/25 08:14:07;;;;;;;14.38;2.20;;;;;;;-146.27;91.37;48383.66;5084115;28;20017;-79
2023/02/25 08:16:33;;;;;;;8.80;1.95;;;;;;;-146.27;91.56;48375.69;5088240;28;20107;-77
2023/02/25 08:18:58;;;;;;;17.65;2.47;;;;;;;-146.27;89.10;48367.72;5086317;28;20405;-77
2023/02/25 08:21:24;;;;;;;12.00;2.20;;;;;;;-146.27;89.05;48395.59;5076428;28;20111;-78
2023/02/25 08:23:51;;;;;;;17.75;2.08;;;;;;;-146.27;88.20;48365.72;5086803;28;20035;-78
2023/02/25 08:26:17;;;;;;;12.25;2.28;;;;;;;-146.27;86.51;48367.72;5091960;28;20028;-79
2023/02/25 08:28:44;;;;;;;13.93;2.30;;;;;;;-146.27;87.18;48393.63;5082312;28;20028;-78
2023/02/25 08:31:12;;;;;;;25.38;2.20;;;;;;;-146.27;87.59;48395.59;5082704;28;20086;-77
2023/02/25 08:33:40;;;;;;;11.85;1.98;;;;;;;-146.27;86.98;48387.63;5077943;28;20051;-77
2023/02/25 08:36:10;;;;;;;16.05;2.25;;;;;;;-146.27;86.99;48357.75;5082526;28;21038;-77
2023/02/25 08:38:37;;;;;;;25.38;2.83;;;;;;;-146.27;87.54;48383.66;5078604;28;20512;-77
2023/02/25 08:41:03;;;;;;;21.45;2.30;;;;;;;-146.27;87.02;48379.66;5094127;28;20024;-77
2023/02/25 08:43:28;;;;;;;14.90;2.40;;;;;;;-146.27;86.10;48383.66;5075431;28;20502;-76
2023/02/25 08:45:55;;;;;;;15.95;2.50;;;;;;;-146.27;86.18;48389.63;5074569;28;20095;-78
2023/02/25 08:48:21;;;;;;;15.38;2.35;;;;;;;-146.27;86.61;48381.66;5085210;28;20494;-79
2023/02/25 08:50:46;;;;;;;11.95;1.92;;;;;;;-146.27;86.45;48335.84;5087188;28;20026;-77
2023/02/25 08:53:11;;;;;;;12.95;1.77;;;;;;;-146.27;85.04;48363.75;5074565;28;20024;-78
2023/02/25 08:55:38;;;;;;;15.25;2.80;;;;;;;-146.27;84.31;48369.72;5074214;28;20032;-77
2023/02/25 08:58:04;;;;;;;15.93;2.00;;;;;;;-146.27;82.51;48399.59;5077765;28;20033;-78
2023/02/25 09:00:29;;;;;;;17.30;2.40;;;;;;;-146.27;80.67;48395.59;5078319;28;20487;-79
2023/02/25 09:02:55;;;;;;;15.50;2.38;;;;;;;-146.27;81.94;48373.69;5082638;28;20107;-79
2023/02/25 09:05:23;;;;;;;16.17;2.63;;;;;;;-146.27;82.22;48371.69;5072927;28;20036;-78
2023/02/25 09:07:50;;;;;;;23.25;3.28;;;;;;;-146.27;81.92;48359.75;5075143;28;20074;-79
2023/02/25 09:10:16;;;;;;;18.40;1.98;;;;;;;-146.27;82.55;48339.84;5084344;28;20081;-78
2023/02/25 09:12:43;;;;;;;14.38;2.42;;;;;;;-146.27;82.56;48375.69;5070802;28;20074;-77
2023/02/25 09:15:09;;;;;;;19.48;2.47;;;;;;;-146.27;84.01;48403.56;5087108;28;20024;-77
2023/02/25 09:17:34;;;;;;;16.75;2.50;;;;;;;-146.27;86.59;48363.75;5087280;28;20058;-75
2023/02/25 09:20:00;;;;;;;22.60;2.75;;;;;;;-146.27;88.64;48411.53;5080578;28;20590;-77
2023/02/25 09:22:26;;;;;;;20.75;2.45;;;;;;;-146.27;93.69;48375.69;5090353;28;20464;-77
2023/02/25 09:24:52;;;;;;;18.77;2.55;;;;;;;-146.27;95.28;48363.75;5074656;28;20029;-76
2023/02/25 09:27:17;;;;;;;11.35;1.45;;;;;;;-146.27;96.09;48375.69;5075970;28;20371;-75
2023/02/25 09:29:43;;;;;;;13.60;1.63;;;;;;;-146.27;99.71;48365.72;5091722;28;20028;-77
2023/02/25 09:32:16;;;;;;;15.07;1.70;;;;;;;-146.27;100.00;48379.66;5089247;28;20093;-77
2023/02/25 09:34:41;;;;;;;13.85;2.38;;;;;;;-146.27;100.00;48363.75;5087715;28;20031;-77
2023/02/25 09:37:08;;;;;;;11.18;2.35;;;;;;;-146.27;100.00;48335.84;5087025;28;20361;-78
2023/02/25 09:39:34;;;;;;;12.77;1.42;;;;;;;-146.27;100.00;48391.63;5079870;28;20215;-77
2023/02/25 09:42:08;;;;;;;19.45;1.95;;;;;;;-146.27;100.00;48387.63;5090054;28;20024;-78
2023/02/25 09:44:47;;;;;;;14.63;1.48;;;;;;;-146.27;100.00;48401.56;5088571;28;20495;-76
2023/02/25 09:47:12;;;;;;;10.07;2.15;;;;;;;-146.27;100.00;48371.69;5085299;28;20032;-76
2023/02/25 09:50:02;;;;;;;14.85;4.38;;;;;;;-146.27;100.00;48339.84;5081399;28;20051;-77
2023/02/25 09:52:34;;;;;;;9.77;1.45;;;;;;;-146.27;100.00;48391.63;5084930;28;20024;-77
2023/02/25 09:55:06;;;;;;;10.30;1.50;;;;;;;-146.27;98.55;48367.72;5086837;28;20055;-78
2023/02/25 09:57:37;;;;;;;8.90;1.80;;;;;;;-146.27;95.23;48387.63;5076805;28;20025;-78
2023/02/25 10:00:08;;;;;;;13.70;2.15;;;;;;;-146.27;92.42;48351.78;5080587;28;20064;-77
2023/02/25 10:02:44;;;;;;;7.47;1.38;;;;;;;-146.27;89.03;48383.66;5089282;28;20392;-77
2023/02/25 10:05:16;;;;;;;11.90;1.60;;;;;;;-146.27;87.39;48343.81;5083474;28;20020;-75
2023/02/25 10:08:09;;;;;;;8.35;1.60;;;;;;;-146.27;87.80;48359.75;5077681;28;20146;-73
2023/02/25 10:11:04;;;;;;;16.15;1.80;;;;;;;-146.27;83.58;48327.88;5076526;28;20233;-75
2023/02/25 10:13:47;;;;;;;17.80;2.28;;;;;;;-146.27;82.78;48363.75;5091690;28;20028;-75
2023/02/25 10:16:27;;;;;;;12.65;1.70;;;;;;;-146.27;80.93;48331.88;5081774;28;20518;-75
2023/02/25 10:19:09;;;;;;;10.82;1.40;;;;;;;-146.27;80.79;48331.88;5087047;28;20043;-77
2023/02/25 10:22:23;;;;;;;11.45;1.75;;;;;;;-146.27;81.05;48379.66;5088810;28;20044;-75
2023/02/25 10:24:55;;;;;;;6.50;1.10;;;;;;;-146.27;77.89;48371.69;5081625;28;20048;-76
2023/02/25 10:27:35;;;;;;;6.43;1.40;;;;;;;-146.27;79.53;48367.72;5073466;28;20025;-76
2023/02/25 10:30:07;;;;;;;8.30;1.52;;;;;;;-146.27;81.57;48347.81;5086625;28;20044;-76
2023/02/25 10:32:34;;;;;;;9.40;1.42;;;;;;;-146.27;81.55;48343.81;5093370;28;20031;-76
2023/02/25 10:35:11;;;;;;;8.52;1.35;;;;;;;-146.27;82.69;48385.66;5084331;28;20130;-76
2023/02/25 10:37:36;;;;;;;3.60;0.90;;;;;;;-146.27;82.34;48359.75;5089327;28;20020;-77
2023/02/25 10:40:05;;;;;;;6.00;0.95;;;;;;;-146.27;82.47;48363.75;5089727;28;20035;-74
2023/02/25 10:42:32;;;;;;;6.80;1.33;;;;;;;-146.27;82.02;48367.72;5091994;28;20103;-74
2023/02/25 10:45:07;;;;;;;7.63;1.00;;;;;;;-146.27;81.46;48351.78;5086570;28;20039;-74
2023/02/25 10:47:41;;;;;;;5.50;0.60;;;;;;;-146.27;80.39;48363.75;5089389;28;20433;-76
2023/02/25 10:50:13;;;;;;;3.25;1.00;;;;;;;-146.27;80.15;48363.75;5083741;28;20031;-76
2023/02/25 10:52:55;;;;;;;5.20;1.38;;;;;;;-146.27;77.60;48339.84;5082400;28;20051;-77
2023/02/25 10:55:40;;;;;;;5.72;0.98;;;;;;;-146.27;81.45;48323.91;5088931;28;20372;-75
2023/02/25 10:58:20;;;;;;;4.22;1.08;;;;;;;-146.27;80.02;48359.75;5089138;28;20024;-75
2023/02/25 11:00:55;;;;;;;5.68;1.15;;;;;;;-146.27;76.33;48339.84;5073784;28;20439;-77
2023/02/25 11:03:22;;;;;;;3.60;0.82;;;;;;;-146.27;76.19;48339.84;5091958;28;20031;-76
2023/02/25 11:06:06;;;;;;;6.88;0.98;;;;;;;-146.27;73.64;48361.75;5075799;28;20121;-77
2023/02/25 11:08:32;;;;;;;10.27;1.60;;;;;;;-146.27;68.96;48335.84;5082471;28;20031;-76
2023/02/25 11:11:09;;;;;;;4.18;0.88;;;;;;;-146.27;62.80;48319.91;5092647;28;20121;-76
2023/02/25 11:13:36;;;;;;;6.63;1.10;;;;;;;-146.27;60.54;48343.81;5085516;28;20035;-76
2023/02/25 11:16:13;;;;;;;9.32;1.42;;;;;;;-146.27;55.76;48288.06;5090814;28;20039;-78
2023/02/25 11:18:40;;;;;;;8.88;1.02;;;;;;;-146.27;54.64;48319.91;5079739;28;20028;-76